Time;durP1;ratioP1;P1;durP2;ratioP2;P2;SDS_P1;SDS_P2;PMS_P1;PMS_P2;Temp;Humidity;BMP_temperature;BMP_pressure;BME280_temperature;BME280_humidity;BME280_pressure;Samples;Min_cycle;Max_cycle;Signal;HPM_P1;HPM_P2
2021/12/29 00:00:23;;;;;;;20.60;14.38;;;;;;;;;;6277359;22;20031;-69
2021/12/29 00:02:49;;;;;;;21.23;14.85;;;;;;;;;;6276354;22;20086;-69
2021/12/29 00:05:16;;;;;;;22.83;16.25;;;;;;;;;;6276778;22;19996;-68
2021/12/29 00:07:42;;;;;;;21.80;13.88;;;;;;;;;;6277563;22;20129;-71
2021/12/29 00:10:08;;;;;;;25.30;15.50;;;;;;;;;;6281588;22;20011;-69
2021/12/29 00:12:40;;;;;;;27.02;14.25;;;;;;;;;;6277215;22;20026;-70
2021/12/29 00:15:07;;;;;;;34.90;16.95;;;;;;;;;;6277835;22;20010;-67
2021/12/29 00:17:33;;;;;;;23.75;11.98;;;;;;;;;;6276245;22;20004;-68
2021/12/29 00:19:59;;;;;;;15.55;9.77;;;;;;;;;;6277622;22;20016;-69
2021/12/29 00:22:25;;;;;;;15.82;9.68;;;;;;;;;;6276044;22;20003;-70
2021/12/29 00:24:51;;;;;;;13.73;8.82;;;;;;;;;;6277073;22;20473;-70
2021/12/29 00:27:17;;;;;;;13.50;7.38;;;;;;;;;;6276997;22;20071;-66
2021/12/29 00:29:43;;;;;;;6.68;5.72;;;;;;;;;;6278072;22;20004;-64
2021/12/29 00:32:10;;;;;;;9.27;5.75;;;;;;;;;;6278789;22;20078;-69
2021/12/29 00:34:36;;;;;;;9.07;5.70;;;;;;;;;;6276391;22;20415;-70
2021/12/29 00:37:02;;;;;;;8.43;5.20;;;;;;;;;;6276650;22;20008;-69
2021/12/29 00:39:28;;;;;;;8.85;5.07;;;;;;;;;;6277546;22;20006;-70
2021/12/29 00:41:54;;;;;;;10.30;4.95;;;;;;;;;;6277755;22;20369;-68
2021/12/29 00:44:20;;;;;;;13.73;5.32;;;;;;;;;;6278554;22;20023;-67
2021/12/29 00:46:52;;;;;;;9.65;5.15;;;;;;;;;;6276319;22;20066;-69
2021/12/29 00:49:18;;;;;;;10.07;4.35;;;;;;;;;;6278188;22;20053;-68
2021/12/29 00:51:44;;;;;;;7.85;4.72;;;;;;;;;;6279523;22;20070;-64
2021/12/29 00:54:10;;;;;;;8.50;4.07;;;;;;;;;;6278642;22;20003;-70
2021/12/29 00:56:38;;;;;;;7.35;3.78;;;;;;;;;;6278228;22;20014;-68
2021/12/29 00:59:04;;;;;;;7.15;3.72;;;;;;;;;;6277502;22;19996;-70
2021/12/29 01:01:30;;;;;;;11.82;3.80;;;;;;;;;;6277934;22;20326;-70
2021/12/29 01:03:57;;;;;;;13.85;4.22;;;;;;;;;;6280877;22;20413;-65
2021/12/29 01:06:23;;;;;;;7.20;2.97;;;;;;;;;;6282318;22;20010;-67
2021/12/29 01:08:49;;;;;;;7.18;3.85;;;;;;;;;;6280713;22;20386;-67
2021/12/29 01:11:15;;;;;;;8.75;3.78;;;;;;;;;;6281173;22;20026;-68
2021/12/29 01:13:47;;;;;;;13.80;4.70;;;;;;;;;;6281274;22;20000;-68
2021/12/29 01:16:56;;;;;;;14.10;4.43;;;;;;;;;;6283072;22;20010;-67
2021/12/29 01:19:15;;;;;;;7.32;3.13;;;;;;;;;;6263203;22;20008;-69
2021/12/29 01:21:42;;;;;;;9.95;3.22;;;;;;;;;;6278963;22;20008;-68
2021/12/29 01:24:10;;;;;;;12.00;3.67;;;;;;;;;;6279228;22;20065;-68
2021/12/29 01:26:36;;;;;;;9.15;3.88;;;;;;;;;;6281740;22;20007;-69
2021/12/29 01:29:03;;;;;;;10.25;4.43;;;;;;;;;;6277183;22;20281;-70
2021/12/29 01:31:29;;;;;;;12.75;4.40;;;;;;;;;;6279237;22;20060;-68
2021/12/29 01:33:55;;;;;;;15.60;3.75;;;;;;;;;;6278507;22;20395;-69
2021/12/29 01:36:21;;;;;;;18.17;4.35;;;;;;;;;;6280287;22;20008;-65
2021/12/29 01:38:47;;;;;;;11.50;4.28;;;;;;;;;;6279870;22;20035;-68
2021/12/29 01:41:13;;;;;;;9.93;3.92;;;;;;;;;;6279156;22;20000;-70
2021/12/29 01:43:39;;;;;;;11.98;4.13;;;;;;;;;;6278792;22;20365;-68
2021/12/29 01:46:05;;;;;;;8.85;3.90;;;;;;;;;;6279218;22;19999;-70
2021/12/29 01:48:32;;;;;;;11.48;4.43;;;;;;;;;;6284109;22;20092;-66
2021/12/29 01:50:59;;;;;;;12.88;3.60;;;;;;;;;;6287986;22;20003;-64
2021/12/29 01:53:29;;;;;;;13.70;5.38;;;;;;;;;;6285266;22;19996;-67
2021/12/29 01:55:55;;;;;;;12.23;3.80;;;;;;;;;;6282178;22;20467;-69
2021/12/29 01:58:22;;;;;;;13.82;4.38;;;;;;;;;;6279634;22;20081;-67
2021/12/29 02:00:49;;;;;;;9.43;4.35;;;;;;;;;;6277580;22;20031;-70
2021/12/29 02:03:15;;;;;;;12.45;3.75;;;;;;;;;;6280487;22;20011;-70
2021/12/29 02:05:41;;;;;;;10.38;3.80;;;;;;;;;;6278408;22;20014;-65
2021/12/29 02:08:07;;;;;;;10.95;3.45;;;;;;;;;;6280241;22;20060;-69
2021/12/29 02:10:41;;;;;;;8.40;3.45;;;;;;;;;;6279427;22;20000;-70
2021/12/29 02:13:08;;;;;;;12.18;3.83;;;;;;;;;;6280961;22;20000;-68
2021/12/29 02:15:34;;;;;;;8.27;3.03;;;;;;;;;;6277706;22;20451;-67
2021/12/29 02:18:00;;;;;;;17.23;3.72;;;;;;;;;;6277075;22;20012;-70
2021/12/29 02:20:27;;;;;;;11.43;4.72;;;;;;;;;;6277294;22;20002;-65
2021/12/29 02:23:30;;;;;;;9.60;3.20;;;;;;;;;;6278674;22;20430;-66
2021/12/29 02:25:50;;;;;;;10.43;4.07;;;;;;;;;;6281448;22;20085;-68
2021/12/29 02:28:17;;;;;;;11.32;4.25;;;;;;;;;;6278553;22;20050;-68
2021/12/29 02:30:43;;;;;;;6.82;3.20;;;;;;;;;;6278602;22;20007;-67
2021/12/29 02:33:13;;;;;;;9.43;3.65;;;;;;;;;;6277852;22;20003;-68
2021/12/29 02:35:39;;;;;;;10.23;3.17;;;;;;;;;;6277287;22;20311;-71
2021/12/29 02:38:09;;;;;;;15.05;3.47;;;;;;;;;;6280499;22;20011;-68
2021/12/29 02:40:36;;;;;;;8.10;2.55;;;;;;;;;;6277232;22;19999;-67
2021/12/29 02:43:02;;;;;;;7.00;3.35;;;;;;;;;;6278124;22;20053;-68
2021/12/29 02:45:33;;;;;;;7.47;3.65;;;;;;;;;;6277609;22;20010;-68
2021/12/29 02:47:59;;;;;;;10.90;3.22;;;;;;;;;;6277797;22;20011;-70
2021/12/29 02:50:25;;;;;;;10.90;3.10;;;;;;;;;;6276278;22;20087;-65
2021/12/29 02:52:51;;;;;;;10.10;3.92;;;;;;;;;;6276447;22;20122;-68
2021/12/29 02:55:17;;;;;;;7.78;3.70;;;;;;;;;;6275034;22;20003;-64
2021/12/29 02:57:43;;;;;;;11.20;3.95;;;;;;;;;;6278660;22;20377;-70
2021/12/29 03:00:14;;;;;;;15.52;7.18;;;;;;;;;;6275169;22;20020;-70
2021/12/29 03:02:40;;;;;;;11.65;7.03;;;;;;;;;;6276069;22;20049;-68
2021/12/29 03:05:06;;;;;;;11.82;6.75;;;;;;;;;;6275291;22;20000;-68
2021/12/29 03:07:32;;;;;;;12.38;7.70;;;;;;;;;;6277139;22;20015;-66
2021/12/29 03:09:58;;;;;;;12.05;7.97;;;;;;;;;;6278601;22;20319;-68
2021/12/29 03:12:24;;;;;;;13.95;7.95;;;;;;;;;;6275880;22;20000;-68
2021/12/29 03:14:56;;;;;;;12.85;6.30;;;;;;;;;;6273319;22;20094;-70
2021/12/29 03:17:22;;;;;;;14.05;7.47;;;;;;;;;;6273290;22;20018;-68
2021/12/29 03:19:48;;;;;;;17.23;9.32;;;;;;;;;;6275047;22;20054;-71
2021/12/29 03:22:14;;;;;;;11.30;6.53;;;;;;;;;;6273386;22;20029;-70
2021/12/29 03:24:41;;;;;;;16.80;7.20;;;;;;;;;;6273510;22;20020;-67
2021/12/29 03:27:07;;;;;;;15.90;8.15;;;;;;;;;;6272983;22;20074;-70
2021/12/29 03:29:33;;;;;;;10.10;7.35;;;;;;;;;;6272776;22;20031;-71
2021/12/29 03:32:05;;;;;;;13.20;7.90;;;;;;;;;;6272178;22;20326;-70
2021/12/29 03:34:32;;;;;;;12.73;7.47;;;;;;;;;;6272730;22;20377;-69
2021/12/29 03:36:58;;;;;;;13.98;7.18;;;;;;;;;;6272208;22;20011;-69
2021/12/29 03:39:26;;;;;;;12.65;9.00;;;;;;;;;;6273994;22;20000;-67
2021/12/29 03:41:52;;;;;;;15.00;7.75;;;;;;;;;;6273466;22;20334;-69
2021/12/29 03:44:18;;;;;;;13.43;7.97;;;;;;;;;;6273757;22;20532;-70
2021/12/29 03:46:44;;;;;;;11.75;7.78;;;;;;;;;;6273440;22;20010;-70
2021/12/29 03:49:10;;;;;;;13.18;8.15;;;;;;;;;;6273659;22;20004;-69
2021/12/29 03:51:36;;;;;;;13.15;7.90;;;;;;;;;;6272495;22;20011;-70
2021/12/29 03:54:04;;;;;;;16.05;7.78;;;;;;;;;;6271778;22;20103;-68
2021/12/29 03:56:31;;;;;;;13.93;7.78;;;;;;;;;;6272368;22;20413;-69
2021/12/29 03:58:57;;;;;;;11.45;7.90;;;;;;;;;;6271451;22;20010;-70
2021/12/29 04:01:25;;;;;;;12.70;7.65;;;;;;;;;;6269362;22;20437;-68
2021/12/29 04:03:52;;;;;;;13.15;8.57;;;;;;;;;;6272551;22;20022;-71
2021/12/29 04:06:19;;;;;;;12.27;7.30;;;;;;;;;;6273245;22;20390;-69
2021/12/29 04:08:46;;;;;;;13.63;8.55;;;;;;;;;;6273350;22;20544;-69
2021/12/29 04:11:13;;;;;;;11.75;7.47;;;;;;;;;;6271194;22;20000;-68
2021/12/29 04:13:39;;;;;;;15.35;8.15;;;;;;;;;;6273380;22;20062;-69
2021/12/29 04:16:06;;;;;;;13.02;7.07;;;;;;;;;;6273616;22;20007;-71
2021/12/29 04:18:33;;;;;;;11.40;6.70;;;;;;;;;;6273373;22;20015;-69
2021/12/29 04:21:02;;;;;;;14.85;7.95;;;;;;;;;;6272882;22;20071;-70
2021/12/29 04:23:29;;;;;;;12.15;7.18;;;;;;;;;;6272319;22;20008;-70
2021/12/29 04:25:57;;;;;;;13.32;8.10;;;;;;;;;;6273175;22;19995;-70
2021/12/29 04:28:25;;;;;;;11.18;6.65;;;;;;;;;;6271417;22;20004;-69
2021/12/29 04:30:53;;;;;;;13.75;7.00;;;;;;;;;;6273468;22;20034;-71
2021/12/29 04:33:19;;;;;;;11.52;6.10;;;;;;;;;;6274631;22;20007;-68
2021/12/29 04:35:46;;;;;;;9.02;6.13;;;;;;;;;;6274358;22;20038;-70
2021/12/29 04:38:12;;;;;;;11.82;6.35;;;;;;;;;;6273873;22;20499;-69
2021/12/29 04:40:39;;;;;;;12.52;6.30;;;;;;;;;;6274427;22;20071;-70
2021/12/29 04:43:05;;;;;;;12.68;5.75;;;;;;;;;;6277166;22;20007;-70
2021/12/29 04:45:31;;;;;;;9.38;5.47;;;;;;;;;;6279880;22;20079;-70
2021/12/29 04:47:59;;;;;;;13.23;4.88;;;;;;;;;;6276263;22;20029;-69
2021/12/29 04:50:28;;;;;;;10.13;5.30;;;;;;;;;;6276367;22;20007;-70
2021/12/29 04:52:59;;;;;;;7.07;4.43;;;;;;;;;;6276761;22;20003;-70
2021/12/29 04:55:29;;;;;;;8.40;4.53;;;;;;;;;;6280378;22;20000;-69
2021/12/29 04:57:56;;;;;;;11.25;6.05;;;;;;;;;;6278000;22;20426;-70
2021/12/29 05:00:26;;;;;;;9.40;4.80;;;;;;;;;;6278082;22;19999;-71
2021/12/29 05:02:53;;;;;;;11.88;5.13;;;;;;;;;;6277700;22;20356;-67
2021/12/29 05:05:41;;;;;;;6.38;3.85;;;;;;;;;;6278946;22;20062;-68
2021/12/29 05:08:28;;;;;;;8.85;4.18;;;;;;;;;;6277754;22;20091;-70
2021/12/29 05:10:55;;;;;;;13.05;4.13;;;;;;;;;;6276168;22;20000;-69
2021/12/29 05:13:21;;;;;;;5.15;3.38;;;;;;;;;;6274653;22;20041;-70
2021/12/29 05:15:47;;;;;;;7.18;3.38;;;;;;;;;;6275008;22;20007;-69
2021/12/29 05:18:13;;;;;;;6.57;4.38;;;;;;;;;;6277454;22;20014;-68
2021/12/29 05:20:40;;;;;;;7.65;4.63;;;;;;;;;;6274791;22;20004;-68
2021/12/29 05:23:06;;;;;;;6.78;4.20;;;;;;;;;;6272730;22;20020;-68
2021/12/29 05:25:32;;;;;;;12.32;4.18;;;;;;;;;;6275911;22;19996;-69
2021/12/29 05:27:58;;;;;;;7.57;3.95;;;;;;;;;;6277061;22;20015;-68
2021/12/29 05:30:24;;;;;;;7.95;4.32;;;;;;;;;;6279062;22;20014;-68
2021/12/29 05:32:50;;;;;;;10.65;4.53;;;;;;;;;;6281902;22;20004;-71
2021/12/29 05:35:17;;;;;;;4.85;3.40;;;;;;;;;;6276710;22;20064;-67
2021/12/29 05:37:43;;;;;;;10.50;4.88;;;;;;;;;;6278237;22;20082;-70
2021/12/29 05:40:10;;;;;;;6.63;3.55;;;;;;;;;;6278690;22;20053;-67
2021/12/29 05:42:36;;;;;;;7.93;2.88;;;;;;;;;;6278312;22;20007;-69
2021/12/29 05:45:04;;;;;;;6.75;2.90;;;;;;;;;;6278804;22;20326;-71
2021/12/29 05:47:30;;;;;;;7.53;3.03;;;;;;;;;;6278418;22;20075;-65
2021/12/29 05:49:56;;;;;;;5.93;3.30;;;;;;;;;;6277938;22;20067;-68
2021/12/29 05:52:22;;;;;;;8.68;4.05;;;;;;;;;;6277828;22;20053;-68
2021/12/29 05:54:48;;;;;;;6.10;3.60;;;;;;;;;;6278606;22;20011;-71
2021/12/29 05:57:14;;;;;;;3.35;2.30;;;;;;;;;;6279465;22;20069;-66
2021/12/29 05:59:40;;;;;;;3.42;2.17;;;;;;;;;;6278723;22;20453;-70
2021/12/29 06:02:06;;;;;;;2.42;1.80;;;;;;;;;;6279523;22;20011;-67
2021/12/29 06:04:33;;;;;;;3.60;2.05;;;;;;;;;;6279569;22;19996;-70
2021/12/29 06:06:59;;;;;;;2.20;1.90;;;;;;;;;;6278200;22;20007;-68
2021/12/29 06:09:25;;;;;;;1.60;1.50;;;;;;;;;;6277366;22;20010;-70
2021/12/29 06:11:52;;;;;;;2.35;1.30;;;;;;;;;;6278570;22;20019;-65
2021/12/29 06:14:18;;;;;;;0.80;0.80;;;;;;;;;;6277535;22;19999;-73
2021/12/29 06:16:44;;;;;;;0.90;0.90;;;;;;;;;;6282100;22;20052;-70
2021/12/29 06:19:10;;;;;;;0.70;0.70;;;;;;;;;;6276614;22;20082;-71
2021/12/29 06:21:36;;;;;;;0.90;0.90;;;;;;;;;;6275697;22;20008;-70
2021/12/29 06:24:02;;;;;;;0.77;0.77;;;;;;;;;;6274598;22;20000;-68
2021/12/29 06:26:28;;;;;;;0.88;0.88;;;;;;;;;;6274626;22;20030;-69
2021/12/29 06:28:55;;;;;;;0.98;0.95;;;;;;;;;;6276635;22;20027;-71
2021/12/29 06:31:21;;;;;;;1.50;1.50;;;;;;;;;;6278277;22;20007;-69
2021/12/29 06:33:47;;;;;;;0.88;0.88;;;;;;;;;;6277662;22;20008;-71
2021/12/29 06:36:13;;;;;;;0.80;0.80;;;;;;;;;;6276459;22;20054;-68
2021/12/29 06:38:39;;;;;;;0.90;0.90;;;;;;;;;;6276439;22;20011;-71
2021/12/29 06:41:05;;;;;;;2.00;1.85;;;;;;;;;;6276996;22;20023;-68
2021/12/29 06:43:31;;;;;;;1.25;1.10;;;;;;;;;;6276189;22;20087;-70
2021/12/29 06:45:58;;;;;;;0.95;0.95;;;;;;;;;;6279882;22;20000;-64
2021/12/29 06:48:25;;;;;;;1.40;0.80;;;;;;;;;;6278550;22;20011;-70
2021/12/29 06:50:51;;;;;;;1.30;1.20;;;;;;;;;;6275618;22;20035;-69
2021/12/29 06:53:17;;;;;;;1.30;1.08;;;;;;;;;;6276174;22;20027;-69
2021/12/29 06:55:43;;;;;;;1.25;0.90;;;;;;;;;;6274967;22;20007;-69
2021/12/29 06:58:12;;;;;;;0.90;0.90;;;;;;;;;;6274390;22;20034;-69
2021/12/29 07:00:39;;;;;;;1.05;0.98;;;;;;;;;;6273580;22;20011;-69
2021/12/29 07:03:06;;;;;;;1.85;1.00;;;;;;;;;;6271873;22;20060;-69
2021/12/29 07:05:33;;;;;;;0.88;0.88;;;;;;;;;;6272655;22;20032;-70
2021/12/29 07:07:59;;;;;;;0.90;0.90;;;;;;;;;;6277615;22;20000;-68
2021/12/29 07:10:25;;;;;;;0.90;0.90;;;;;;;;;;6274900;22;20082;-69
2021/12/29 07:12:51;;;;;;;0.90;0.90;;;;;;;;;;6274436;22;20011;-71
2021/12/29 07:15:18;;;;;;;0.80;0.80;;;;;;;;;;6274248;22;20003;-69
2021/12/29 07:17:44;;;;;;;0.50;0.50;;;;;;;;;;6273969;22;20008;-68
2021/12/29 07:20:10;;;;;;;0.70;0.70;;;;;;;;;;6274900;22;20021;-68
2021/12/29 07:22:36;;;;;;;0.73;0.63;;;;;;;;;;6273231;22;20424;-71
2021/12/29 07:25:03;;;;;;;0.70;0.70;;;;;;;;;;6271433;22;20027;-70
2021/12/29 07:27:29;;;;;;;0.70;0.70;;;;;;;;;;6274543;22;20428;-68
2021/12/29 07:29:55;;;;;;;0.68;0.68;;;;;;;;;;6279218;22;20011;-70
2021/12/29 07:32:21;;;;;;;0.60;0.60;;;;;;;;;;6274291;22;20003;-68
2021/12/29 07:34:47;;;;;;;0.73;0.73;;;;;;;;;;6275668;22;20087;-69
2021/12/29 07:37:14;;;;;;;0.60;0.60;;;;;;;;;;6273830;22;20003;-69
2021/12/29 07:39:41;;;;;;;0.60;0.60;;;;;;;;;;6274182;22;20173;-70
2021/12/29 07:42:07;;;;;;;0.70;0.70;;;;;;;;;;6274650;22;20000;-70
2021/12/29 07:44:33;;;;;;;0.73;0.73;;;;;;;;;;6273291;22;20481;-70
2021/12/29 07:47:00;;;;;;;0.70;0.70;;;;;;;;;;6273632;22;20342;-67
2021/12/29 07:49:26;;;;;;;0.85;0.85;;;;;;;;;;6272958;22;20426;-69
2021/12/29 07:51:53;;;;;;;0.70;0.70;;;;;;;;;;6276440;22;20000;-69
2021/12/29 07:54:21;;;;;;;0.75;0.75;;;;;;;;;;6274555;22;20084;-69
2021/12/29 07:56:47;;;;;;;0.98;0.98;;;;;;;;;;6275722;22;20007;-70
2021/12/29 07:59:13;;;;;;;1.00;1.00;;;;;;;;;;6271446;22;20004;-70
2021/12/29 08:01:40;;;;;;;0.80;0.80;;;;;;;;;;6274467;22;20004;-70
2021/12/29 08:04:06;;;;;;;1.13;1.13;;;;;;;;;;6275781;22;20064;-70
2021/12/29 08:06:32;;;;;;;0.90;0.90;;;;;;;;;;6274864;22;20054;-70
2021/12/29 08:08:58;;;;;;;0.95;0.95;;;;;;;;;;6273741;22;20315;-70
2021/12/29 08:11:24;;;;;;;1.05;1.05;;;;;;;;;;6274243;22;20008;-70
2021/12/29 08:13:50;;;;;;;2.25;0.75;;;;;;;;;;6275103;22;20015;-70
2021/12/29 08:16:17;;;;;;;0.90;0.90;;;;;;;;;;6273954;22;20000;-72
2021/12/29 08:18:43;;;;;;;1.48;1.40;;;;;;;;;;6273582;22;20006;-69
2021/12/29 08:21:09;;;;;;;0.80;0.80;;;;;;;;;;6273718;22;20003;-71
2021/12/29 08:23:35;;;;;;;1.10;1.10;;;;;;;;;;6275553;22;19996;-64
2021/12/29 08:26:01;;;;;;;1.00;1.00;;;;;;;;;;6274470;22;20004;-70
2021/12/29 08:28:28;;;;;;;1.05;1.02;;;;;;;;;;6273815;22;20128;-69
2021/12/29 08:30:54;;;;;;;1.08;1.02;;;;;;;;;;6274585;22;20031;-68
2021/12/29 08:33:20;;;;;;;1.58;1.30;;;;;;;;;;6273091;22;20401;-69
2021/12/29 08:35:46;;;;;;;2.17;1.40;;;;;;;;;;6279281;22;20039;-71
2021/12/29 08:38:13;;;;;;;2.72;1.17;;;;;;;;;;6274145;22;20079;-72
2021/12/29 08:40:39;;;;;;;4.50;1.42;;;;;;;;;;6273759;22;20006;-71
2021/12/29 08:43:05;;;;;;;4.38;1.77;;;;;;;;;;6274244;22;20006;-69
2021/12/29 08:45:32;;;;;;;4.53;2.40;;;;;;;;;;6274160;22;20482;-69
2021/12/29 08:47:58;;;;;;;6.18;1.50;;;;;;;;;;6276632;22;20004;-70
2021/12/29 08:50:25;;;;;;;4.75;1.60;;;;;;;;;;6271330;22;20054;-71
2021/12/29 08:52:52;;;;;;;4.22;1.80;;;;;;;;;;6272897;22;20070;-67
2021/12/29 08:55:18;;;;;;;4.63;1.80;;;;;;;;;;6272263;22;20052;-70
2021/12/29 08:57:44;;;;;;;3.35;1.80;;;;;;;;;;6274115;22;20011;-68
2021/12/29 09:00:12;;;;;;;6.53;2.35;;;;;;;;;;6276221;22;20070;-69
2021/12/29 09:02:38;;;;;;;5.03;1.80;;;;;;;;;;6272928;22;19995;-67
2021/12/29 09:05:05;;;;;;;3.63;2.20;;;;;;;;;;6273190;22;20000;-68
2021/12/29 09:07:31;;;;;;;6.28;2.45;;;;;;;;;;6273659;22;20007;-70
2021/12/29 09:09:57;;;;;;;9.85;3.08;;;;;;;;;;6272675;22;20369;-65
2021/12/29 09:12:23;;;;;;;7.72;2.05;;;;;;;;;;6275452;22;20066;-71
2021/12/29 09:14:49;;;;;;;5.57;3.05;;;;;;;;;;6273417;22;20004;-69
2021/12/29 09:17:15;;;;;;;12.13;3.22;;;;;;;;;;6273970;22;20039;-69
2021/12/29 09:19:43;;;;;;;9.00;2.92;;;;;;;;;;6275664;22;20004;-70
2021/12/29 09:22:10;;;;;;;9.55;3.22;;;;;;;;;;6274201;22;20035;-69
2021/12/29 09:24:36;;;;;;;12.65;3.40;;;;;;;;;;6275801;22;20000;-69
2021/12/29 09:27:02;;;;;;;16.95;4.32;;;;;;;;;;6274227;22;20022;-69
2021/12/29 09:29:32;;;;;;;16.60;3.58;;;;;;;;;;6274769;22;20037;-70
2021/12/29 09:31:58;;;;;;;14.40;3.85;;;;;;;;;;6273853;22;20069;-70
2021/12/29 09:34:24;;;;;;;15.30;4.50;;;;;;;;;;6277814;22;20061;-68
2021/12/29 09:36:50;;;;;;;11.90;3.58;;;;;;;;;;6273719;22;20015;-69
2021/12/29 09:39:16;;;;;;;14.00;3.65;;;;;;;;;;6275563;22;20029;-69
2021/12/29 09:41:43;;;;;;;15.45;3.85;;;;;;;;;;6273387;22;20014;-68
2021/12/29 09:44:10;;;;;;;13.13;4.07;;;;;;;;;;6274186;22;20087;-70
2021/12/29 09:46:38;;;;;;;12.07;3.38;;;;;;;;;;6276008;22;20071;-69
2021/12/29 09:49:04;;;;;;;10.27;3.47;;;;;;;;;;6275077;22;20051;-70
2021/12/29 09:51:30;;;;;;;14.40;3.58;;;;;;;;;;6274529;22;20006;-69
2021/12/29 09:53:56;;;;;;;17.40;4.05;;;;;;;;;;6274148;22;20434;-69
2021/12/29 09:56:22;;;;;;;11.93;3.80;;;;;;;;;;6276207;22;20000;-69
2021/12/29 09:58:49;;;;;;;11.30;3.20;;;;;;;;;;6275136;22;20437;-69
2021/12/29 10:01:16;;;;;;;16.35;5.32;;;;;;;;;;6275523;22;19996;-69
2021/12/29 10:03:43;;;;;;;17.42;4.55;;;;;;;;;;6275292;22;20003;-64
2021/12/29 10:06:10;;;;;;;15.82;3.70;;;;;;;;;;6276035;22;20126;-65
2021/12/29 10:08:47;;;;;;;11.80;3.92;;;;;;;;;;6275910;22;20007;-68
2021/12/29 10:11:16;;;;;;;14.15;4.20;;;;;;;;;;6273916;22;20046;-66
2021/12/29 10:13:43;;;;;;;15.40;5.18;;;;;;;;;;6274050;22;19996;-70
2021/12/29 10:16:11;;;;;;;12.20;3.58;;;;;;;;;;6274280;22;20004;-70
2021/12/29 10:18:37;;;;;;;15.10;4.15;;;;;;;;;;6278005;22;20080;-67
2021/12/29 10:21:08;;;;;;;13.95;3.25;;;;;;;;;;6275548;22;19999;-66
2021/12/29 10:23:36;;;;;;;13.65;4.68;;;;;;;;;;6275252;22;20011;-70
2021/12/29 10:26:10;;;;;;;15.32;3.40;;;;;;;;;;6273628;22;19999;-70
2021/12/29 10:28:36;;;;;;;13.15;4.95;;;;;;;;;;6277507;22;19999;-69
2021/12/29 10:31:13;;;;;;;20.05;5.93;;;;;;;;;;6274633;22;20000;-67
2021/12/29 10:33:44;;;;;;;13.43;4.20;;;;;;;;;;6274696;22;20061;-69
2021/12/29 10:36:30;;;;;;;18.58;5.47;;;;;;;;;;6274602;22;20011;-68
2021/12/29 10:39:04;;;;;;;17.08;4.35;;;;;;;;;;6261014;22;20004;-67
2021/12/29 10:41:31;;;;;;;16.55;3.83;;;;;;;;;;6273653;22;19995;-69
2021/12/29 10:44:04;;;;;;;18.38;5.63;;;;;;;;;;6273996;22;20007;-69
2021/12/29 10:46:33;;;;;;;16.73;5.55;;;;;;;;;;6273634;22;20051;-70
2021/12/29 10:49:01;;;;;;;12.13;4.18;;;;;;;;;;6275569;22;20023;-68
2021/12/29 10:51:29;;;;;;;15.90;4.78;;;;;;;;;;6275002;22;20053;-68
2021/12/29 10:54:04;;;;;;;18.85;4.65;;;;;;;;;;6274842;22;20004;-68
2021/12/29 10:56:30;;;;;;;13.35;4.15;;;;;;;;;;6271322;22;20130;-68
2021/12/29 10:58:56;;;;;;;16.70;4.85;;;;;;;;;;6275730;22;20422;-70
2021/12/29 11:01:23;;;;;;;16.75;5.43;;;;;;;;;;6279345;22;19996;-64
2021/12/29 11:03:50;;;;;;;17.85;4.82;;;;;;;;;;6275881;22;19999;-70
2021/12/29 11:06:19;;;;;;;14.60;4.95;;;;;;;;;;6274815;22;20074;-71
2021/12/29 11:08:56;;;;;;;15.90;5.32;;;;;;;;;;6274838;22;20029;-68
2021/12/29 11:11:26;;;;;;;15.55;4.72;;;;;;;;;;6274949;22;20018;-70
2021/12/29 11:13:59;;;;;;;16.95;5.70;;;;;;;;;;6280648;22;20335;-69
2021/12/29 11:16:25;;;;;;;23.73;4.78;;;;;;;;;;6274897;22;19999;-68
2021/12/29 11:18:52;;;;;;;17.88;4.60;;;;;;;;;;6274050;22;20138;-71
2021/12/29 11:21:30;;;;;;;17.08;4.13;;;;;;;;;;6274981;22;20007;-68
2021/12/29 11:23:57;;;;;;;12.02;3.80;;;;;;;;;;6274409;22;20493;-68
2021/12/29 11:26:30;;;;;;;19.13;4.63;;;;;;;;;;6274177;22;20084;-70
2021/12/29 11:29:08;;;;;;;20.00;4.43;;;;;;;;;;6273808;22;20039;-69
2021/12/29 11:31:35;;;;;;;19.25;4.43;;;;;;;;;;6275647;22;20057;-70
2021/12/29 11:34:26;;;;;;;24.95;5.88;;;;;;;;;;6272297;22;20010;-71
2021/12/29 11:37:09;;;;;;;25.88;6.68;;;;;;;;;;6277934;22;20019;-68
2021/12/29 11:39:41;;;;;;;21.88;4.93;;;;;;;;;;6270794;22;20031;-70
2021/12/29 11:42:07;;;;;;;28.25;5.03;;;;;;;;;;6272247;22;20008;-71
2021/12/29 11:44:34;;;;;;;24.70;5.10;;;;;;;;;;6273899;22;20416;-68
2021/12/29 11:47:00;;;;;;;12.55;4.55;;;;;;;;;;6274850;22;20026;-70
2021/12/29 11:49:26;;;;;;;21.42;5.35;;;;;;;;;;6272448;22;20329;-67
2021/12/29 11:51:57;;;;;;;17.65;6.03;;;;;;;;;;6274952;22;20007;-70
2021/12/29 11:54:32;;;;;;;21.10;5.93;;;;;;;;;;6276133;22;20042;-70
2021/12/29 11:56:58;;;;;;;19.30;6.45;;;;;;;;;;6274446;22;20007;-67
2021/12/29 11:59:31;;;;;;;23.45;6.60;;;;;;;;;;6276689;22;19995;-68
2021/12/29 12:02:02;;;;;;;20.92;6.03;;;;;;;;;;6275459;22;20006;-67
2021/12/29 12:04:28;;;;;;;20.00;5.82;;;;;;;;;;6271217;22;20002;-67
2021/12/29 12:07:08;;;;;;;23.80;6.47;;;;;;;;;;6271060;22;20031;-70
2021/12/29 12:09:48;;;;;;;26.35;6.40;;;;;;;;;;6272080;22;20129;-71
2021/12/29 12:12:14;;;;;;;30.75;7.60;;;;;;;;;;6271736;22;20007;-70
2021/12/29 12:14:46;;;;;;;18.90;4.72;;;;;;;;;;6272046;22;20011;-70
2021/12/29 12:17:15;;;;;;;29.27;5.80;;;;;;;;;;6272516;22;19999;-70
2021/12/29 12:19:42;;;;;;;17.52;5.30;;;;;;;;;;6273006;22;20033;-67
2021/12/29 12:22:09;;;;;;;24.83;5.47;;;;;;;;;;6272357;22;20082;-70
2021/12/29 12:24:37;;;;;;;21.88;5.07;;;;;;;;;;6271794;22;20034;-69
2021/12/29 12:27:10;;;;;;;22.13;4.93;;;;;;;;;;6270821;22;20094;-69
2021/12/29 12:29:41;;;;;;;22.02;5.53;;;;;;;;;;6273411;22;20057;-68
2021/12/29 12:32:07;;;;;;;20.77;5.72;;;;;;;;;;6271301;22;20071;-68
2021/12/29 12:34:35;;;;;;;16.48;5.13;;;;;;;;;;6272677;22;20011;-69
2021/12/29 12:37:12;;;;;;;19.20;6.18;;;;;;;;;;6269905;22;20410;-70
2021/12/29 12:39:38;;;;;;;20.73;6.45;;;;;;;;;;6272876;22;20000;-69
2021/12/29 12:42:04;;;;;;;18.83;5.80;;;;;;;;;;6271833;22;19999;-68
2021/12/29 12:44:35;;;;;;;21.50;6.93;;;;;;;;;;6272785;22;19999;-70
2021/12/29 12:47:09;;;;;;;22.10;6.53;;;;;;;;;;6271922;22;20060;-70
2021/12/29 12:49:41;;;;;;;19.40;3.92;;;;;;;;;;6272039;22;20035;-68
2021/12/29 12:52:09;;;;;;;19.50;5.80;;;;;;;;;;6277769;22;20004;-67
2021/12/29 12:54:36;;;;;;;17.77;5.22;;;;;;;;;;6274417;22;20010;-69
2021/12/29 12:57:03;;;;;;;27.48;5.47;;;;;;;;;;6272407;22;20008;-68
2021/12/29 12:59:39;;;;;;;14.13;4.28;;;;;;;;;;6272631;22;20075;-68
2021/12/29 13:02:14;;;;;;;14.90;3.75;;;;;;;;;;6274647;22;20438;-69
2021/12/29 13:04:44;;;;;;;21.40;4.68;;;;;;;;;;6277956;22;20614;-70
2021/12/29 13:07:10;;;;;;;17.35;4.40;;;;;;;;;;6270976;22;20003;-69
2021/12/29 13:09:49;;;;;;;16.98;4.80;;;;;;;;;;6272252;22;20007;-69
2021/12/29 13:12:24;;;;;;;17.88;4.80;;;;;;;;;;6273410;22;20023;-69
2021/12/29 13:14:57;;;;;;;18.85;5.00;;;;;;;;;;6275901;22;20681;-70
2021/12/29 13:17:23;;;;;;;18.65;4.18;;;;;;;;;;6274292;22;20342;-69
2021/12/29 13:19:51;;;;;;;16.13;4.65;;;;;;;;;;6273353;22;20103;-70
2021/12/29 13:22:29;;;;;;;21.48;6.03;;;;;;;;;;6275206;22;20015;-69
2021/12/29 13:25:31;;;;;;;17.25;6.72;;;;;;;;;;6274995;22;20007;-70
2021/12/29 13:28:02;;;;;;;17.73;4.68;;;;;;;;;;6227574;22;20003;-65
2021/12/29 13:30:29;;;;;;;20.70;6.30;;;;;;;;;;6273321;22;19999;-72
2021/12/29 13:32:57;;;;;;;23.90;5.68;;;;;;;;;;6274031;22;20429;-67
2021/12/29 13:35:24;;;;;;;20.80;5.75;;;;;;;;;;6273288;22;20004;-69
2021/12/29 13:37:51;;;;;;;15.10;4.13;;;;;;;;;;6273705;22;20061;-70
2021/12/29 13:40:19;;;;;;;21.42;4.22;;;;;;;;;;6274566;22;20004;-69
2021/12/29 13:42:46;;;;;;;19.15;4.43;;;;;;;;;;6273307;22;19996;-69
2021/12/29 13:45:25;;;;;;;19.10;5.70;;;;;;;;;;6270289;22;20000;-69
2021/12/29 13:47:51;;;;;;;21.95;4.43;;;;;;;;;;6272926;22;20003;-70
2021/12/29 13:50:18;;;;;;;15.15;4.82;;;;;;;;;;6275897;22;20419;-65
2021/12/29 13:52:58;;;;;;;12.55;4.35;;;;;;;;;;6270663;22;20011;-69
2021/12/29 13:55:25;;;;;;;15.30;6.88;;;;;;;;;;6271285;22;20008;-70
2021/12/29 13:57:55;;;;;;;23.48;9.30;;;;;;;;;;6272436;22;20137;-69
2021/12/29 14:00:21;;;;;;;13.88;4.32;;;;;;;;;;6271234;22;20008;-70
2021/12/29 14:02:47;;;;;;;14.57;5.38;;;;;;;;;;6267652;22;20007;-66
2021/12/29 14:05:15;;;;;;;20.15;4.18;;;;;;;;;;6271337;22;20161;-69
2021/12/29 14:07:41;;;;;;;15.63;4.93;;;;;;;;;;6269742;22;20011;-69
2021/12/29 14:10:07;;;;;;;20.42;4.82;;;;;;;;;;6272026;22;20438;-68
2021/12/29 14:12:35;;;;;;;18.92;5.15;;;;;;;;;;6270231;22;20008;-70
2021/12/29 14:15:04;;;;;;;15.88;4.18;;;;;;;;;;6272041;22;20016;-70
2021/12/29 14:17:37;;;;;;;15.35;5.55;;;;;;;;;;6271703;22;20004;-69
2021/12/29 14:20:08;;;;;;;17.23;4.88;;;;;;;;;;6271613;22;20023;-68
2021/12/29 14:22:35;;;;;;;23.90;6.70;;;;;;;;;;6276777;22;20008;-66
2021/12/29 14:25:08;;;;;;;15.10;4.90;;;;;;;;;;6273718;22;20011;-69
2021/12/29 14:27:36;;;;;;;16.33;4.75;;;;;;;;;;6268861;22;20469;-67
2021/12/29 14:30:22;;;;;;;14.88;5.00;;;;;;;;;;6271300;22;20008;-70
2021/12/29 14:32:56;;;;;;;20.35;4.80;;;;;;;;;;6272189;22;20003;-69
2021/12/29 14:35:22;;;;;;;17.83;4.75;;;;;;;;;;6271241;22;20003;-66
2021/12/29 14:37:49;;;;;;;16.45;4.65;;;;;;;;;;6273487;22;20011;-68